sensor_id;sensor_type;location;lat;lon;timestamp;pressure;altitude;pressure_sealevel;temperature;humidity
72558;BME280;60583;50.094;8.748;2023-02-04T00:00:45;101854.22;;;8.18;72.79
72558;BME280;60583;50.094;8.748;2023-02-04T00:03:13;101831.06;;;8.01;73.12
72558;BME280;60583;50.094;8.748;2023-02-04T00:05:39;101841.66;;;8.01;72.40
72558;BME280;60583;50.094;8.748;2023-02-04T00:08:05;101859.25;;;8.11;72.81
72558;BME280;60583;50.094;8.748;2023-02-04T00:10:31;101840.03;;;8.00;72.13
72558;BME280;60583;50.094;8.748;2023-02-04T00:12:56;101828.19;;;7.85;72.12
72558;BME280;60583;50.094;8.748;2023-02-04T00:15:21;101842.28;;;7.95;72.28
72558;BME280;60583;50.094;8.748;2023-02-04T00:17:47;101841.28;;;7.96;71.70
72558;BME280;60583;50.094;8.748;2023-02-04T00:20:13;101863.03;;;8.09;71.83
72558;BME280;60583;50.094;8.748;2023-02-04T00:22:38;101833.91;;;7.90;71.51
72558;BME280;60583;50.094;8.748;2023-02-04T00:25:04;101862.06;;;8.10;71.12
72558;BME280;60583;50.094;8.748;2023-02-04T00:27:30;101864.03;;;8.08;71.75
72558;BME280;60583;50.094;8.748;2023-02-04T00:29:55;101827.50;;;7.83;71.88
72558;BME280;60583;50.094;8.748;2023-02-04T00:32:22;101861.59;;;7.87;71.37
72558;BME280;60583;50.094;8.748;2023-02-04T00:34:47;101859.34;;;7.92;72.30
72558;BME280;60583;50.094;8.748;2023-02-04T00:37:13;101878.47;;;7.96;72.19
72558;BME280;60583;50.094;8.748;2023-02-04T00:39:38;101862.31;;;7.80;72.24
72558;BME280;60583;50.094;8.748;2023-02-04T00:42:04;101870.28;;;7.80;71.41
72558;BME280;60583;50.094;8.748;2023-02-04T00:44:30;101846.13;;;7.63;70.88
72558;BME280;60583;50.094;8.748;2023-02-04T00:46:55;101856.31;;;7.78;70.64
72558;BME280;60583;50.094;8.748;2023-02-04T00:49:21;101863.28;;;7.79;71.45
72558;BME280;60583;50.094;8.748;2023-02-04T00:51:46;101882.28;;;7.84;70.95
72558;BME280;60583;50.094;8.748;2023-02-04T00:54:12;101879.22;;;7.79;71.97
72558;BME280;60583;50.094;8.748;2023-02-04T00:56:40;101854.50;;;7.68;71.17
72558;BME280;60583;50.094;8.748;2023-02-04T00:59:06;101883.13;;;7.84;70.78
72558;BME280;60583;50.094;8.748;2023-02-04T01:01:33;101855.91;;;7.72;70.96
72558;BME280;60583;50.094;8.748;2023-02-04T01:03:58;101890.97;;;7.76;70.87
72558;BME280;60583;50.094;8.748;2023-02-04T01:06:23;101901.13;;;7.81;70.40
72558;BME280;60583;50.094;8.748;2023-02-04T01:08:49;101899.03;;;7.84;70.85
72558;BME280;60583;50.094;8.748;2023-02-04T01:11:15;101901.16;;;7.90;70.58
72558;BME280;60583;50.094;8.748;2023-02-04T01:13:41;101911.19;;;7.87;69.50
72558;BME280;60583;50.094;8.748;2023-02-04T01:16:07;101903.81;;;7.90;70.67
72558;BME280;60583;50.094;8.748;2023-02-04T01:18:32;101869.50;;;7.60;69.99
72558;BME280;60583;50.094;8.748;2023-02-04T01:20:58;101878.69;;;7.65;71.13
72558;BME280;60583;50.094;8.748;2023-02-04T01:23:23;101931.19;;;7.81;70.69
72558;BME280;60583;50.094;8.748;2023-02-04T01:25:49;101914.16;;;7.74;70.28
72558;BME280;60583;50.094;8.748;2023-02-04T01:28:14;101892.50;;;7.69;70.47
72558;BME280;60583;50.094;8.748;2023-02-04T01:30:40;101874.78;;;7.50;70.37
72558;BME280;60583;50.094;8.748;2023-02-04T01:33:05;101905.22;;;7.65;70.40
72558;BME280;60583;50.094;8.748;2023-02-04T01:35:31;101926.31;;;7.77;71.92
72558;BME280;60583;50.094;8.748;2023-02-04T01:37:56;101907.34;;;7.62;71.45
72558;BME280;60583;50.094;8.748;2023-02-04T01:40:22;101933.88;;;7.71;71.76
72558;BME280;60583;50.094;8.748;2023-02-04T01:42:47;101938.06;;;7.74;71.40
72558;BME280;60583;50.094;8.748;2023-02-04T01:45:13;101942.41;;;7.75;71.05
72558;BME280;60583;50.094;8.748;2023-02-04T01:47:38;101949.38;;;7.76;70.19
72558;BME280;60583;50.094;8.748;2023-02-04T01:50:05;101943.22;;;7.76;70.13
72558;BME280;60583;50.094;8.748;2023-02-04T01:52:34;101928.44;;;7.63;70.32
72558;BME280;60583;50.094;8.748;2023-02-04T01:55:01;101953.56;;;7.79;71.50
72558;BME280;60583;50.094;8.748;2023-02-04T01:57:26;101956.91;;;7.81;70.48
72558;BME280;60583;50.094;8.748;2023-02-04T01:59:54;101957.47;;;7.84;70.06
72558;BME280;60583;50.094;8.748;2023-02-04T02:02:46;101954.66;;;7.86;69.96
72558;BME280;60583;50.094;8.748;2023-02-04T02:05:16;101951.59;;;7.81;69.98
72558;BME280;60583;50.094;8.748;2023-02-04T02:07:46;101949.53;;;7.65;70.41
72558;BME280;60583;50.094;8.748;2023-02-04T02:10:12;101969.34;;;7.70;70.74
72558;BME280;60583;50.094;8.748;2023-02-04T02:12:40;101965.59;;;7.63;70.55
72558;BME280;60583;50.094;8.748;2023-02-04T02:15:08;101971.47;;;7.67;69.76
72558;BME280;60583;50.094;8.748;2023-02-04T02:17:33;101984.31;;;7.71;69.29
72558;BME280;60583;50.094;8.748;2023-02-04T02:19:59;101972.84;;;7.61;70.60
72558;BME280;60583;50.094;8.748;2023-02-04T02:22:29;101975.66;;;7.60;69.12
72558;BME280;60583;50.094;8.748;2023-02-04T02:24:56;101984.88;;;7.56;69.24
72558;BME280;60583;50.094;8.748;2023-02-04T02:27:22;101958.91;;;7.50;68.89
72558;BME280;60583;50.094;8.748;2023-02-04T02:29:48;101966.97;;;7.58;68.27
72558;BME280;60583;50.094;8.748;2023-02-04T02:32:14;101946.59;;;7.39;68.65
72558;BME280;60583;50.094;8.748;2023-02-04T02:34:40;101949.94;;;7.41;68.76
72558;BME280;60583;50.094;8.748;2023-02-04T02:37:07;101979.72;;;7.54;69.62
72558;BME280;60583;50.094;8.748;2023-02-04T02:39:38;101951.22;;;7.37;69.92
72558;BME280;60583;50.094;8.748;2023-02-04T02:42:05;101988.50;;;7.45;69.94
72558;BME280;60583;50.094;8.748;2023-02-04T02:44:31;101977.19;;;7.34;70.44
72558;BME280;60583;50.094;8.748;2023-02-04T02:46:57;101966.41;;;7.26;69.22
72558;BME280;60583;50.094;8.748;2023-02-04T02:49:24;101979.84;;;7.34;69.26
72558;BME280;60583;50.094;8.748;2023-02-04T02:51:50;101977.59;;;7.29;69.17
72558;BME280;60583;50.094;8.748;2023-02-04T02:54:22;101991.00;;;7.28;70.42
72558;BME280;60583;50.094;8.748;2023-02-04T02:56:49;101961.09;;;7.06;69.66
72558;BME280;60583;50.094;8.748;2023-02-04T02:59:16;101975.19;;;7.07;69.83
72558;BME280;60583;50.094;8.748;2023-02-04T03:01:43;102011.41;;;7.27;70.00
72558;BME280;60583;50.094;8.748;2023-02-04T03:04:11;102000.63;;;7.19;70.42
72558;BME280;60583;50.094;8.748;2023-02-04T03:06:37;102013.63;;;7.22;71.28
72558;BME280;60583;50.094;8.748;2023-02-04T03:09:02;102008.03;;;7.25;70.66
72558;BME280;60583;50.094;8.748;2023-02-04T03:11:28;102008.31;;;7.22;71.38
72558;BME280;60583;50.094;8.748;2023-02-04T03:13:55;102008.59;;;7.19;70.82
72558;BME280;60583;50.094;8.748;2023-02-04T03:16:22;102019.34;;;7.27;71.09
72558;BME280;60583;50.094;8.748;2023-02-04T03:18:48;102011.66;;;7.24;71.36
72558;BME280;60583;50.094;8.748;2023-02-04T03:21:14;102007.47;;;7.12;70.61
72558;BME280;60583;50.094;8.748;2023-02-04T03:23:39;101967.44;;;6.85;69.69
72558;BME280;60583;50.094;8.748;2023-02-04T03:26:05;102010.63;;;7.06;69.95
72558;BME280;60583;50.094;8.748;2023-02-04T03:28:31;102018.88;;;7.13;70.15
72558;BME280;60583;50.094;8.748;2023-02-04T03:30:57;102031.19;;;7.23;69.64
72558;BME280;60583;50.094;8.748;2023-02-04T03:33:24;102026.56;;;7.16;69.46
72558;BME280;60583;50.094;8.748;2023-02-04T03:35:52;102027.00;;;7.11;69.04
72558;BME280;60583;50.094;8.748;2023-02-04T03:38:18;102006.28;;;7.05;70.27
72558;BME280;60583;50.094;8.748;2023-02-04T03:40:44;102015.78;;;7.07;70.70
72558;BME280;60583;50.094;8.748;2023-02-04T03:43:09;102014.94;;;6.97;70.30
72558;BME280;60583;50.094;8.748;2023-02-04T03:45:35;102043.16;;;7.08;71.34
72558;BME280;60583;50.094;8.748;2023-02-04T03:48:01;102014.91;;;6.88;70.93
72558;BME280;60583;50.094;8.748;2023-02-04T03:50:26;102047.06;;;7.04;71.25
72558;BME280;60583;50.094;8.748;2023-02-04T03:52:52;102040.91;;;6.94;71.62
72558;BME280;60583;50.094;8.748;2023-02-04T03:55:18;102062.16;;;7.13;71.09
72558;BME280;60583;50.094;8.748;2023-02-04T03:57:44;102053.25;;;7.14;71.34
72558;BME280;60583;50.094;8.748;2023-02-04T04:00:10;102057.19;;;7.20;71.08
72558;BME280;60583;50.094;8.748;2023-02-04T04:02:36;102055.56;;;7.07;71.60
72558;BME280;60583;50.094;8.748;2023-02-04T04:05:01;102041.06;;;7.02;71.41
72558;BME280;60583;50.094;8.748;2023-02-04T04:07:27;102068.72;;;7.09;71.89
72558;BME280;60583;50.094;8.748;2023-02-04T04:09:52;102074.16;;;7.07;72.06
72558;BME280;60583;50.094;8.748;2023-02-04T04:12:18;102074.44;;;7.04;70.93
72558;BME280;60583;50.094;8.748;2023-02-04T04:14:43;102078.22;;;7.12;71.19
72558;BME280;60583;50.094;8.748;2023-02-04T04:17:09;102073.59;;;7.04;70.21
72558;BME280;60583;50.094;8.748;2023-02-04T04:19:34;102086.84;;;7.04;71.29
72558;BME280;60583;50.094;8.748;2023-02-04T04:22:00;102066.03;;;6.99;71.16
72558;BME280;60583;50.094;8.748;2023-02-04T04:24:25;102089.78;;;7.11;70.87
72558;BME280;60583;50.094;8.748;2023-02-04T04:26:51;102093.97;;;7.03;70.88
72558;BME280;60583;50.094;8.748;2023-02-04T04:29:16;102087.81;;;7.03;70.73
72558;BME280;60583;50.094;8.748;2023-02-04T04:31:41;102078.34;;;7.10;71.37
72558;BME280;60583;50.094;8.748;2023-02-04T04:34:09;102052.84;;;6.79;71.42
72558;BME280;60583;50.094;8.748;2023-02-04T04:36:35;102062.97;;;6.94;71.15
72558;BME280;60583;50.094;8.748;2023-02-04T04:39:00;102082.25;;;7.06;70.67
72558;BME280;60583;50.094;8.748;2023-02-04T04:41:25;102070.25;;;7.02;70.42
72558;BME280;60583;50.094;8.748;2023-02-04T04:43:51;102061.13;;;6.95;70.73
72558;BME280;60583;50.094;8.748;2023-02-04T04:46:16;102086.44;;;7.08;70.79
72558;BME280;60583;50.094;8.748;2023-02-04T04:48:42;102094.81;;;7.04;71.16
72558;BME280;60583;50.094;8.748;2023-02-04T04:51:07;102097.03;;;6.99;71.28
72558;BME280;60583;50.094;8.748;2023-02-04T04:53:33;102065.09;;;6.80;71.35
72558;BME280;60583;50.094;8.748;2023-02-04T04:55:58;102090.28;;;6.95;71.81
72558;BME280;60583;50.094;8.748;2023-02-04T04:58:24;102095.31;;;6.98;72.38
72558;BME280;60583;50.094;8.748;2023-02-04T05:00:49;102086.28;;;7.00;72.37
72558;BME280;60583;50.094;8.748;2023-02-04T05:03:14;102089.28;;;6.86;73.48
72558;BME280;60583;50.094;8.748;2023-02-04T05:05:40;102103.09;;;6.90;73.50
72558;BME280;60583;50.094;8.748;2023-02-04T05:08:06;102083.94;;;6.77;73.16
72558;BME280;60583;50.094;8.748;2023-02-04T05:10:40;102090.59;;;6.71;73.33
72558;BME280;60583;50.094;8.748;2023-02-04T05:13:06;102109.72;;;6.75;73.41
72558;BME280;60583;50.094;8.748;2023-02-04T05:15:31;102106.28;;;6.54;73.54
72558;BME280;60583;50.094;8.748;2023-02-04T05:17:58;102116.88;;;6.54;74.63
72558;BME280;60583;50.094;8.748;2023-02-04T05:20:24;102128.13;;;6.46;74.47
72558;BME280;60583;50.094;8.748;2023-02-04T05:22:50;102073.38;;;6.15;74.69
72558;BME280;60583;50.094;8.748;2023-02-04T05:25:16;102131.88;;;6.43;74.67
72558;BME280;60583;50.094;8.748;2023-02-04T05:27:42;102127.06;;;6.37;75.09
72558;BME280;60583;50.094;8.748;2023-02-04T05:30:12;102130.31;;;6.41;74.90
72558;BME280;60583;50.094;8.748;2023-02-04T05:32:38;102137.81;;;6.36;75.29
72558;BME280;60583;50.094;8.748;2023-02-04T05:35:04;102125.06;;;6.30;74.85
72558;BME280;60583;50.094;8.748;2023-02-04T05:37:30;102109.09;;;6.20;75.23
72558;BME280;60583;50.094;8.748;2023-02-04T05:39:55;102124.94;;;6.31;75.28
72558;BME280;60583;50.094;8.748;2023-02-04T05:42:21;102079.91;;;6.11;75.39
72558;BME280;60583;50.094;8.748;2023-02-04T05:44:46;102138.56;;;6.48;75.75
72558;BME280;60583;50.094;8.748;2023-02-04T05:47:13;102146.72;;;6.56;74.77
72558;BME280;60583;50.094;8.748;2023-02-04T05:49:38;102151.06;;;6.57;74.96
72558;BME280;60583;50.094;8.748;2023-02-04T05:52:04;102148.22;;;6.49;75.30
72558;BME280;60583;50.094;8.748;2023-02-04T05:54:29;102150.06;;;6.58;75.01
72558;BME280;60583;50.094;8.748;2023-02-04T05:56:55;102149.56;;;6.64;74.26
72558;BME280;60583;50.094;8.748;2023-02-04T05:59:20;102134.19;;;6.58;74.19
72558;BME280;60583;50.094;8.748;2023-02-04T06:01:46;102139.88;;;6.53;74.97
72558;BME280;60583;50.094;8.748;2023-02-04T06:04:11;102147.22;;;6.70;74.06
72558;BME280;60583;50.094;8.748;2023-02-04T06:06:37;102138.19;;;6.73;73.82
72558;BME280;60583;50.094;8.748;2023-02-04T06:09:02;102157.59;;;6.73;73.35
72558;BME280;60583;50.094;8.748;2023-02-04T06:11:28;102162.28;;;6.70;73.83
72558;BME280;60583;50.094;8.748;2023-02-04T06:13:53;102148.53;;;6.76;73.21
72558;BME280;60583;50.094;8.748;2023-02-04T06:16:19;102166.44;;;6.83;73.51
72558;BME280;60583;50.094;8.748;2023-02-04T06:18:44;102172.59;;;6.84;73.92
72558;BME280;60583;50.094;8.748;2023-02-04T06:21:10;102179.19;;;6.69;74.15
72558;BME280;60583;50.094;8.748;2023-02-04T06:23:35;102150.34;;;6.55;74.70
72558;BME280;60583;50.094;8.748;2023-02-04T06:26:01;102171.69;;;6.74;74.39
72558;BME280;60583;50.094;8.748;2023-02-04T06:28:27;102167.59;;;6.70;74.35
72558;BME280;60583;50.094;8.748;2023-02-04T06:30:52;102173.88;;;6.69;74.28
72558;BME280;60583;50.094;8.748;2023-02-04T06:33:18;102173.34;;;6.75;74.25
72558;BME280;60583;50.094;8.748;2023-02-04T06:35:43;102185.38;;;6.79;74.13
72558;BME280;60583;50.094;8.748;2023-02-04T06:38:09;102167.13;;;6.65;74.03
72558;BME280;60583;50.094;8.748;2023-02-04T06:40:35;102181.50;;;6.62;74.45
72558;BME280;60583;50.094;8.748;2023-02-04T06:43:00;102177.19;;;6.61;74.67
72558;BME280;60583;50.094;8.748;2023-02-04T06:45:25;102167.94;;;6.56;75.27
72558;BME280;60583;50.094;8.748;2023-02-04T06:47:51;102190.34;;;6.72;74.79
72558;BME280;60583;50.094;8.748;2023-02-04T06:50:16;102192.22;;;6.61;75.47
72558;BME280;60583;50.094;8.748;2023-02-04T06:52:46;102196.19;;;6.66;75.51
72558;BME280;60583;50.094;8.748;2023-02-04T06:55:13;102195.66;;;6.72;75.56
72558;BME280;60583;50.094;8.748;2023-02-04T06:57:38;102200.69;;;6.75;75.37
72558;BME280;60583;50.094;8.748;2023-02-04T07:00:05;102197.28;;;6.84;75.30
72558;BME280;60583;50.094;8.748;2023-02-04T07:02:31;102177.50;;;6.68;75.74
72558;BME280;60583;50.094;8.748;2023-02-04T07:04:56;102204.19;;;6.76;76.00
72558;BME280;60583;50.094;8.748;2023-02-04T07:07:24;102204.66;;;6.81;75.75
72558;BME280;60583;50.094;8.748;2023-02-04T07:09:50;102220.09;;;6.76;76.55
72558;BME280;60583;50.094;8.748;2023-02-04T07:12:15;102219.41;;;6.74;76.44
72558;BME280;60583;50.094;8.748;2023-02-04T07:14:41;102234.72;;;6.70;76.60
72558;BME280;60583;50.094;8.748;2023-02-04T07:17:06;102242.91;;;6.67;76.44
72558;BME280;60583;50.094;8.748;2023-02-04T07:19:31;102239.94;;;6.61;77.06
72558;BME280;60583;50.094;8.748;2023-02-04T07:21:58;102228.41;;;6.51;77.30
72558;BME280;60583;50.094;8.748;2023-02-04T07:24:23;102249.59;;;6.62;76.72
72558;BME280;60583;50.094;8.748;2023-02-04T07:26:50;102261.59;;;6.66;77.21
72558;BME280;60583;50.094;8.748;2023-02-04T07:29:16;102264.88;;;6.58;77.04
72558;BME280;60583;50.094;8.748;2023-02-04T07:31:43;102241.66;;;6.51;76.74
72558;BME280;60583;50.094;8.748;2023-02-04T07:34:13;102255.84;;;6.61;76.61
72558;BME280;60583;50.094;8.748;2023-02-04T07:36:39;102274.06;;;6.75;77.00
72558;BME280;60583;50.094;8.748;2023-02-04T07:39:05;102256.09;;;6.58;76.61
72558;BME280;60583;50.094;8.748;2023-02-04T07:41:30;102272.19;;;6.66;77.17
72558;BME280;60583;50.094;8.748;2023-02-04T07:43:56;102270.78;;;6.62;77.11
72558;BME280;60583;50.094;8.748;2023-02-04T07:46:21;102271.28;;;6.56;77.42
72558;BME280;60583;50.094;8.748;2023-02-04T07:48:47;102272.38;;;6.53;77.23
72558;BME280;60583;50.094;8.748;2023-02-04T07:51:12;102278.38;;;6.55;77.65
72558;BME280;60583;50.094;8.748;2023-02-04T07:53:37;102285.63;;;6.53;77.42
72558;BME280;60583;50.094;8.748;2023-02-04T07:56:03;102294.69;;;6.39;78.44
72558;BME280;60583;50.094;8.748;2023-02-04T07:58:29;102271.25;;;6.24;78.21
72558;BME280;60583;50.094;8.748;2023-02-04T08:00:54;102289.66;;;6.36;78.87
72558;BME280;60583;50.094;8.748;2023-02-04T08:03:20;102309.47;;;6.42;78.62
72558;BME280;60583;50.094;8.748;2023-02-04T08:05:45;102305.66;;;6.46;78.77
72558;BME280;60583;50.094;8.748;2023-02-04T08:08:11;102324.28;;;6.56;78.72
72558;BME280;60583;50.094;8.748;2023-02-04T08:10:36;102317.19;;;6.56;78.83
72558;BME280;60583;50.094;8.748;2023-02-04T08:13:02;102307.03;;;6.61;78.65
72558;BME280;60583;50.094;8.748;2023-02-04T08:15:27;102297.47;;;6.70;78.59
72558;BME280;60583;50.094;8.748;2023-02-04T08:17:53;102289.28;;;6.73;78.08
72558;BME280;60583;50.094;8.748;2023-02-04T08:20:21;102327.94;;;7.07;77.77
72558;BME280;60583;50.094;8.748;2023-02-04T08:22:47;102323.81;;;7.14;77.85
72558;BME280;60583;50.094;8.748;2023-02-04T08:25:12;102329.25;;;7.33;77.41
72558;BME280;60583;50.094;8.748;2023-02-04T08:27:38;102319.53;;;7.43;76.97
72558;BME280;60583;50.094;8.748;2023-02-04T08:30:04;102286.47;;;7.27;75.80
72558;BME280;60583;50.094;8.748;2023-02-04T08:32:29;102337.84;;;7.46;75.93
72558;BME280;60583;50.094;8.748;2023-02-04T08:34:56;102329.13;;;7.35;75.51
72558;BME280;60583;50.094;8.748;2023-02-04T08:37:22;102339.09;;;7.42;76.03
72558;BME280;60583;50.094;8.748;2023-02-04T08:39:47;102347.66;;;7.76;75.03
72558;BME280;60583;50.094;8.748;2023-02-04T08:42:14;102344.59;;;7.81;73.46
72558;BME280;60583;50.094;8.748;2023-02-04T08:44:40;102355.41;;;8.19;73.39
72558;BME280;60583;50.094;8.748;2023-02-04T08:47:05;102360.69;;;8.40;73.38
72558;BME280;60583;50.094;8.748;2023-02-04T08:49:31;102334.50;;;8.35;73.71
72558;BME280;60583;50.094;8.748;2023-02-04T08:51:57;102372.91;;;8.61;72.83
72558;BME280;60583;50.094;8.748;2023-02-04T08:54:23;102370.66;;;8.66;73.07
72558;BME280;60583;50.094;8.748;2023-02-04T08:56:49;102359.50;;;8.72;71.62
72558;BME280;60583;50.094;8.748;2023-02-04T08:59:15;102372.78;;;8.82;69.85
72558;BME280;60583;50.094;8.748;2023-02-04T09:01:40;102356.97;;;8.80;69.86
72558;BME280;60583;50.094;8.748;2023-02-04T09:04:06;102376.31;;;9.02;68.65
72558;BME280;60583;50.094;8.748;2023-02-04T09:06:32;102375.50;;;9.11;68.54
72558;BME280;60583;50.094;8.748;2023-02-04T09:08:57;102380.22;;;9.17;68.26
72558;BME280;60583;50.094;8.748;2023-02-04T09:11:23;102373.53;;;8.93;67.98
72558;BME280;60583;50.094;8.748;2023-02-04T09:13:48;102385.00;;;9.13;68.09
72558;BME280;60583;50.094;8.748;2023-02-04T09:16:14;102387.66;;;9.32;68.05
72558;BME280;60583;50.094;8.748;2023-02-04T09:18:42;102383.03;;;9.34;67.26
72558;BME280;60583;50.094;8.748;2023-02-04T09:21:07;102386.69;;;9.43;67.82
72558;BME280;60583;50.094;8.748;2023-02-04T09:23:33;102387.22;;;9.56;66.98
72558;BME280;60583;50.094;8.748;2023-02-04T09:25:58;102387.03;;;9.67;66.88
72558;BME280;60583;50.094;8.748;2023-02-04T09:28:25;102390.84;;;9.74;66.91
72558;BME280;60583;50.094;8.748;2023-02-04T09:30:51;102386.34;;;9.65;66.51
72558;BME280;60583;50.094;8.748;2023-02-04T09:33:17;102391.53;;;9.76;65.13
72558;BME280;60583;50.094;8.748;2023-02-04T09:35:43;102394.81;;;9.41;65.56
72558;BME280;60583;50.094;8.748;2023-02-04T09:38:09;102373.78;;;9.38;66.32
72558;BME280;60583;50.094;8.748;2023-02-04T09:40:37;102389.75;;;9.19;66.82
72558;BME280;60583;50.094;8.748;2023-02-04T09:43:05;102427.03;;;9.10;67.87
72558;BME280;60583;50.094;8.748;2023-02-04T09:45:33;102417.50;;;9.07;67.94
72558;BME280;60583;50.094;8.748;2023-02-04T09:48:02;102428.72;;;9.11;67.66
72558;BME280;60583;50.094;8.748;2023-02-04T09:50:29;102409.50;;;8.88;67.64
72558;BME280;60583;50.094;8.748;2023-02-04T09:53:03;102426.94;;;8.71;68.30
72558;BME280;60583;50.094;8.748;2023-02-04T09:55:34;102432.25;;;8.71;68.00
72558;BME280;60583;50.094;8.748;2023-02-04T09:58:02;102414.56;;;8.51;69.37
72558;BME280;60583;50.094;8.748;2023-02-04T10:00:29;102440.16;;;9.02;67.85
72558;BME280;60583;50.094;8.748;2023-02-04T10:02:59;102436.72;;;8.61;68.80
72558;BME280;60583;50.094;8.748;2023-02-04T10:05:29;102458.72;;;8.63;70.25
72558;BME280;60583;50.094;8.748;2023-02-04T10:07:55;102446.59;;;8.40;70.90
72558;BME280;60583;50.094;8.748;2023-02-04T10:10:23;102406.50;;;8.02;71.51
72558;BME280;60583;50.094;8.748;2023-02-04T10:12:53;102471.28;;;8.31;72.29
72558;BME280;60583;50.094;8.748;2023-02-04T10:15:19;102430.00;;;8.06;72.87
72558;BME280;60583;50.094;8.748;2023-02-04T10:17:57;102449.91;;;8.12;74.68
72558;BME280;60583;50.094;8.748;2023-02-04T10:20:25;102423.81;;;7.76;74.64
72558;BME280;60583;50.094;8.748;2023-02-04T10:22:52;102476.53;;;8.01;75.76
72558;BME280;60583;50.094;8.748;2023-02-04T10:25:21;102484.72;;;8.09;77.69
72558;BME280;60583;50.094;8.748;2023-02-04T10:27:56;102472.00;;;8.12;77.59
72558;BME280;60583;50.094;8.748;2023-02-04T10:30:25;102478.03;;;7.94;77.74
72558;BME280;60583;50.094;8.748;2023-02-04T10:32:51;102479.66;;;8.06;76.71
72558;BME280;60583;50.094;8.748;2023-02-04T10:35:20;102477.00;;;8.26;76.94
72558;BME280;60583;50.094;8.748;2023-02-04T10:37:46;102474.50;;;8.55;75.67
72558;BME280;60583;50.094;8.748;2023-02-04T10:40:32;102480.63;;;8.86;74.10
72558;BME280;60583;50.094;8.748;2023-02-04T10:42:58;102478.19;;;9.71;70.43
72558;BME280;60583;50.094;8.748;2023-02-04T10:45:28;102467.22;;;10.49;68.47
72558;BME280;60583;50.094;8.748;2023-02-04T10:47:55;102479.69;;;11.12;65.16
72558;BME280;60583;50.094;8.748;2023-02-04T10:50:23;102471.91;;;11.36;64.52
72558;BME280;60583;50.094;8.748;2023-02-04T10:52:57;102465.25;;;11.40;62.83
72558;BME280;60583;50.094;8.748;2023-02-04T10:55:45;102462.50;;;11.68;61.39
72558;BME280;60583;50.094;8.748;2023-02-04T10:58:17;102434.59;;;11.44;62.40
72558;BME280;60583;50.094;8.748;2023-02-04T11:00:44;102467.25;;;11.38;63.28
72558;BME280;60583;50.094;8.748;2023-02-04T11:03:23;102439.44;;;10.96;60.29
72558;BME280;60583;50.094;8.748;2023-02-04T11:05:50;102442.63;;;10.82;60.17
72558;BME280;60583;50.094;8.748;2023-02-04T11:08:21;102449.41;;;10.76;61.10
72558;BME280;60583;50.094;8.748;2023-02-04T11:10:56;102469.38;;;11.17;60.78
72558;BME280;60583;50.094;8.748;2023-02-04T11:13:26;102468.06;;;11.04;60.57
72558;BME280;60583;50.094;8.748;2023-02-04T11:16:11;102468.16;;;11.47;57.98
72558;BME280;60583;50.094;8.748;2023-02-04T11:29:21;102465.22;;;15.33;45.73
72558;BME280;60583;50.094;8.748;2023-02-04T11:39:46;102446.50;;;19.70;35.54
72558;BME280;60583;50.094;8.748;2023-02-04T11:42:24;102450.75;;;20.63;35.27
72558;BME280;60583;50.094;8.748;2023-02-04T11:44:57;102463.25;;;19.20;37.16
72558;BME280;60583;50.094;8.748;2023-02-04T11:47:24;102460.84;;;17.45;40.27
72558;BME280;60583;50.094;8.748;2023-02-04T11:49:57;102465.69;;;16.34;41.96
72558;BME280;60583;50.094;8.748;2023-02-04T11:52:23;102459.00;;;15.10;44.09
72558;BME280;60583;50.094;8.748;2023-02-04T11:54:57;102460.00;;;14.40;46.04
72558;BME280;60583;50.094;8.748;2023-02-04T11:57:24;102465.75;;;13.48;46.71
72558;BME280;60583;50.094;8.748;2023-02-04T11:59:50;102457.63;;;13.08;48.34
72558;BME280;60583;50.094;8.748;2023-02-04T12:02:18;102478.31;;;12.22;49.79
72558;BME280;60583;50.094;8.748;2023-02-04T12:04:56;102466.00;;;11.86;51.06
72558;BME280;60583;50.094;8.748;2023-02-04T12:07:28;102474.78;;;11.43;51.77
72558;BME280;60583;50.094;8.748;2023-02-04T12:09:55;102478.91;;;11.02;52.81
72558;BME280;60583;50.094;8.748;2023-02-04T12:12:28;102486.72;;;10.86;53.72
72558;BME280;60583;50.094;8.748;2023-02-04T12:15:03;102480.16;;;10.98;53.29
72558;BME280;60583;50.094;8.748;2023-02-04T12:17:33;102451.28;;;10.39;55.29
72558;BME280;60583;50.094;8.748;2023-02-04T12:19:58;102476.28;;;10.29;55.40
72558;BME280;60583;50.094;8.748;2023-02-04T12:22:24;102449.50;;;10.11;55.95
72558;BME280;60583;50.094;8.748;2023-02-04T12:24:49;102426.03;;;10.34;55.19
72558;BME280;60583;50.094;8.748;2023-02-04T12:27:16;102463.47;;;10.96;54.79
72558;BME280;60583;50.094;8.748;2023-02-04T12:29:42;102467.56;;;10.90;55.04
72558;BME280;60583;50.094;8.748;2023-02-04T12:32:07;102469.91;;;10.76;56.23
72558;BME280;60583;50.094;8.748;2023-02-04T12:34:33;102471.59;;;10.77;56.13
72558;BME280;60583;50.094;8.748;2023-02-04T12:36:58;102447.78;;;10.66;56.75
72558;BME280;60583;50.094;8.748;2023-02-04T12:39:24;102473.75;;;10.91;54.90
72558;BME280;60583;50.094;8.748;2023-02-04T12:41:49;102464.16;;;10.98;53.76
72558;BME280;60583;50.094;8.748;2023-02-04T12:44:15;102457.63;;;12.32;50.63
72558;BME280;60583;50.094;8.748;2023-02-04T12:46:41;102468.75;;;14.01;47.28
72558;BME280;60583;50.094;8.748;2023-02-04T12:49:07;102461.44;;;14.50;44.91
72558;BME280;60583;50.094;8.748;2023-02-04T12:51:32;102432.03;;;13.94;45.50
72558;BME280;60583;50.094;8.748;2023-02-04T12:53:58;102451.94;;;15.09;43.93
72558;BME280;60583;50.094;8.748;2023-02-04T12:56:23;102482.97;;;14.81;43.52
72558;BME280;60583;50.094;8.748;2023-02-04T12:58:49;102481.50;;;13.83;45.30
72558;BME280;60583;50.094;8.748;2023-02-04T13:01:14;102457.75;;;12.56;47.81
72558;BME280;60583;50.094;8.748;2023-02-04T13:03:40;102483.69;;;12.98;48.38
72558;BME280;60583;50.094;8.748;2023-02-04T13:06:05;102477.84;;;15.02;44.83
72558;BME280;60583;50.094;8.748;2023-02-04T13:08:31;102480.59;;;14.23;46.70
72558;BME280;60583;50.094;8.748;2023-02-04T13:10:56;102461.88;;;13.26;47.71
72558;BME280;60583;50.094;8.748;2023-02-04T13:13:22;102483.63;;;12.81;48.00